Time;durP1;ratioP1;P1;durP2;ratioP2;P2;SDS_P1;SDS_P2;PMS_P1;PMS_P2;Temp;Humidity;BMP_temperature;BMP_pressure;BME280_temperature;BME280_humidity;BME280_pressure;Samples;Min_cycle;Max_cycle;Signal;HPM_P1;HPM_P2
2021/01/30 00:02:08;;;;;;;0.50;0.50;;;21.30;52.60;;;;;;5230648;28;20040;-80
2021/01/30 00:04:39;;;;;;;0.77;0.55;;;21.30;52.60;;;;;;5198163;28;20032;-81
2021/01/30 00:07:09;;;;;;;0.40;0.40;;;21.30;52.70;;;;;;5200495;28;20040;-81
2021/01/30 00:09:40;;;;;;;0.60;0.50;;;21.20;52.60;;;;;;5202993;28;20055;-81
2021/01/30 00:12:10;;;;;;;0.73;0.60;;;21.20;52.60;;;;;;5252962;28;20088;-81
2021/01/30 00:14:41;;;;;;;0.43;0.35;;;21.20;52.80;;;;;;5235590;28;20024;-79
2021/01/30 00:17:11;;;;;;;1.83;0.65;;;21.20;52.70;;;;;;5212935;28;20045;-79
2021/01/30 00:19:44;;;;;;;0.80;0.50;;;21.20;52.90;;;;;;5212623;28;20040;-82
2021/01/30 00:22:17;;;;;;;2.42;0.60;;;21.20;52.80;;;;;;5218251;28;20090;-79
2021/01/30 00:24:51;;;;;;;6.50;0.60;;;21.20;52.80;;;;;;5216574;28;20036;-79
2021/01/30 00:27:22;;;;;;;5.32;0.50;;;21.20;52.90;;;;;;5185164;28;20107;-80
2021/01/30 00:29:55;;;;;;;3.25;0.60;;;21.20;53.00;;;;;;5220273;28;20028;-80
2021/01/30 00:32:26;;;;;;;0.82;0.40;;;21.20;52.90;;;;;;5233356;28;20140;-80
2021/01/30 00:34:56;;;;;;;0.47;0.45;;;21.20;53.10;;;;;;5251921;28;20068;-80
2021/01/30 00:37:27;;;;;;;1.00;0.50;;;21.20;53.20;;;;;;5207492;28;20035;-82
2021/01/30 00:39:57;;;;;;;2.55;0.60;;;21.20;53.20;;;;;;5215308;28;20020;-81
2021/01/30 00:42:28;;;;;;;0.40;0.40;;;21.10;53.30;;;;;;5217184;28;20060;-80
2021/01/30 00:44:58;;;;;;;1.40;0.60;;;21.10;53.50;;;;;;5216627;28;20475;-80
2021/01/30 00:47:29;;;;;;;0.95;0.55;;;21.10;53.50;;;;;;5213886;28;20032;-80
2021/01/30 00:49:59;;;;;;;1.05;0.50;;;21.10;53.80;;;;;;5215493;28;20040;-80
2021/01/30 00:52:30;;;;;;;4.20;0.60;;;21.10;54.00;;;;;;5231152;28;20098;-80
2021/01/30 00:55:00;;;;;;;2.25;0.88;;;21.10;54.00;;;;;;5216027;28;20031;-80
2021/01/30 00:57:31;;;;;;;3.10;0.50;;;21.10;54.00;;;;;;5229210;28;20043;-80
2021/01/30 01:00:14;;;;;;;1.38;0.43;;;21.10;53.90;;;;;;5214684;28;20035;-81
2021/01/30 01:02:44;;;;;;;2.05;0.50;;;21.10;54.00;;;;;;5199527;28;20637;-80
2021/01/30 01:05:15;;;;;;;1.50;0.38;;;21.10;54.00;;;;;;5231196;28;20039;-80
2021/01/30 01:07:46;;;;;;;0.85;0.40;;;21.10;54.00;;;;;;5198280;28;20063;-80
2021/01/30 01:10:18;;;;;;;2.42;0.40;;;21.00;53.90;;;;;;5197494;28;20082;-81
2021/01/30 01:12:49;;;;;;;1.00;0.50;;;21.00;54.00;;;;;;5197385;28;20089;-79
2021/01/30 01:15:20;;;;;;;1.27;0.40;;;21.00;53.90;;;;;;5213331;28;20405;-78
2021/01/30 01:17:51;;;;;;;0.77;0.40;;;21.00;54.10;;;;;;5203934;28;20104;-78
2021/01/30 01:20:22;;;;;;;0.60;0.40;;;21.00;54.20;;;;;;5230188;28;20029;-78
2021/01/30 01:22:52;;;;;;;0.63;0.60;;;21.00;54.30;;;;;;5230933;28;20041;-79
2021/01/30 01:25:23;;;;;;;0.52;0.40;;;21.00;54.20;;;;;;5209129;28;20102;-78
2021/01/30 01:27:53;;;;;;;0.50;0.40;;;21.00;54.40;;;;;;5212350;28;20040;-78
2021/01/30 01:30:24;;;;;;;0.52;0.50;;;21.00;54.40;;;;;;5192773;28;20540;-78
2021/01/30 01:32:55;;;;;;;1.65;0.50;;;21.00;54.10;;;;;;5196672;28;20090;-79
2021/01/30 01:35:27;;;;;;;2.65;0.50;;;21.00;54.20;;;;;;5248934;28;20063;-80
2021/01/30 01:37:58;;;;;;;0.82;0.50;;;21.00;54.80;;;;;;5187903;28;20029;-78
2021/01/30 01:40:36;;;;;;;0.82;0.40;;;21.00;54.70;;;;;;5192511;28;20016;-79
2021/01/30 01:43:10;;;;;;;0.65;0.40;;;21.00;54.70;;;;;;5213673;28;20043;-78
2021/01/30 01:45:41;;;;;;;14.88;0.75;;;21.00;55.30;;;;;;5224804;28;20052;-78
2021/01/30 01:48:26;;;;;;;1.00;0.45;;;21.00;55.30;;;;;;5203248;28;20407;-81
2021/01/30 01:50:56;;;;;;;1.98;0.50;;;21.00;55.30;;;;;;5208415;28;20068;-78
2021/01/30 01:53:30;;;;;;;3.10;0.50;;;21.00;55.30;;;;;;5228484;28;20427;-78
2021/01/30 01:56:06;;;;;;;3.42;0.50;;;21.00;55.20;;;;;;5228959;28;20083;-78
2021/01/30 01:58:41;;;;;;;0.68;0.50;;;20.90;55.30;;;;;;5210547;28;20024;-80
2021/01/30 02:01:12;;;;;;;1.25;0.30;;;21.00;55.30;;;;;;5210761;28;20028;-78
2021/01/30 02:03:44;;;;;;;0.60;0.40;;;20.90;55.30;;;;;;5207760;28;20033;-78
2021/01/30 02:06:15;;;;;;;5.28;0.50;;;20.90;55.30;;;;;;5192250;28;20380;-78
2021/01/30 02:08:46;;;;;;;0.80;0.50;;;20.90;55.10;;;;;;5227691;28;20028;-79
2021/01/30 02:11:17;;;;;;;0.73;0.50;;;20.90;55.00;;;;;;5195536;28;20029;-78
2021/01/30 02:13:52;;;;;;;0.75;0.45;;;20.90;54.90;;;;;;5227674;28;20056;-79
2021/01/30 02:16:36;;;;;;;0.50;0.40;;;20.90;54.90;;;;;;5189651;28;20044;-78
2021/01/30 02:19:29;;;;;;;0.75;0.50;;;20.90;54.90;;;;;;5224871;28;20035;-78
2021/01/30 02:22:14;;;;;;;0.65;0.43;;;20.90;54.90;;;;;;5246831;28;20100;-78
2021/01/30 02:24:54;;;;;;;1.75;0.70;;;20.90;54.80;;;;;;5213777;28;20503;-78
2021/01/30 02:27:31;;;;;;;0.55;0.40;;;20.90;54.80;;;;;;5227020;28;20491;-78
2021/01/30 02:30:15;;;;;;;1.35;0.43;;;20.90;54.90;;;;;;5208360;28;20021;-78
2021/01/30 02:33:14;;;;;;;0.40;0.40;;;20.90;54.80;;;;;;5190406;28;20078;-78
2021/01/30 02:36:07;;;;;;;0.40;0.40;;;20.90;54.70;;;;;;5195365;28;20036;-78
2021/01/30 02:38:39;;;;;;;0.95;0.40;;;20.90;54.70;;;;;;5213677;28;20033;-78
2021/01/30 02:41:15;;;;;;;0.95;0.50;;;21.00;55.10;;;;;;5192952;28;20154;-77
2021/01/30 02:43:46;;;;;;;6.18;0.60;;;21.00;55.10;;;;;;5191499;28;20059;-77
2021/01/30 02:46:22;;;;;;;1.20;0.55;;;21.00;55.00;;;;;;5213588;28;20418;-77
2021/01/30 02:48:56;;;;;;;2.90;0.73;;;21.00;55.10;;;;;;5194443;28;20043;-77
2021/01/30 02:51:30;;;;;;;2.58;0.70;;;21.00;55.20;;;;;;5211026;28;20453;-79
2021/01/30 02:54:00;;;;;;;0.65;0.55;;;21.00;55.10;;;;;;5221051;28;20542;-78
2021/01/30 02:56:31;;;;;;;3.35;0.60;;;20.90;55.00;;;;;;5195003;28;20116;-77
2021/01/30 02:59:04;;;;;;;0.63;0.50;;;20.90;54.90;;;;;;5226882;28;20032;-78
2021/01/30 03:01:38;;;;;;;2.25;0.60;;;20.90;54.90;;;;;;5211560;28;20380;-79
2021/01/30 03:04:14;;;;;;;1.00;0.60;;;20.90;55.00;;;;;;5207377;28;20071;-79
2021/01/30 03:06:54;;;;;;;1.55;0.60;;;20.90;54.90;;;;;;5192755;28;20062;-78
2021/01/30 03:09:52;;;;;;;4.60;0.60;;;20.90;55.00;;;;;;5209372;28;20065;-78
2021/01/30 03:12:30;;;;;;;0.82;0.52;;;20.90;55.10;;;;;;5215570;28;20039;-80
2021/01/30 03:15:11;;;;;;;7.93;0.60;;;20.90;55.10;;;;;;5232812;28;20056;-79
2021/01/30 03:17:42;;;;;;;0.77;0.68;;;20.80;54.70;;;;;;5225601;28;20036;-79
2021/01/30 03:20:13;;;;;;;1.67;0.60;;;20.90;55.00;;;;;;5198936;28;20074;-78
2021/01/30 03:22:43;;;;;;;0.52;0.52;;;20.80;55.00;;;;;;5216028;28;20476;-79
2021/01/30 03:25:22;;;;;;;0.77;0.60;;;20.80;54.50;;;;;;5236974;28;20031;-80
2021/01/30 03:27:55;;;;;;;0.75;0.60;;;20.90;55.00;;;;;;5201753;28;20025;-80
2021/01/30 03:30:26;;;;;;;1.30;0.60;;;20.80;55.00;;;;;;5236036;28;20112;-81
2021/01/30 03:32:56;;;;;;;1.00;0.80;;;20.80;55.40;;;;;;5218459;28;20060;-79
2021/01/30 03:35:27;;;;;;;0.98;0.63;;;20.80;54.70;;;;;;5210795;28;20058;-78
2021/01/30 03:37:57;;;;;;;0.68;0.68;;;20.90;55.30;;;;;;5215786;28;20078;-79
2021/01/30 03:40:28;;;;;;;0.50;0.50;;;20.90;55.10;;;;;;5231987;28;20025;-78
2021/01/30 03:42:58;;;;;;;1.75;0.65;;;20.90;55.20;;;;;;5201351;28;20037;-80
2021/01/30 03:45:29;;;;;;;1.85;0.80;;;20.80;55.10;;;;;;5213318;28;20119;-79
2021/01/30 03:48:00;;;;;;;1.95;0.60;;;20.90;55.30;;;;;;5213991;28;20032;-78
2021/01/30 03:50:30;;;;;;;1.27;0.70;;;20.90;55.30;;;;;;5198074;28;20038;-77
2021/01/30 03:53:04;;;;;;;0.90;0.88;;;20.90;55.20;;;;;;5209292;28;20068;-79
2021/01/30 03:55:35;;;;;;;0.93;0.75;;;20.80;55.10;;;;;;5215946;28;20036;-78
2021/01/30 03:58:06;;;;;;;0.80;0.80;;;20.90;55.10;;;;;;5213985;28;20029;-78
2021/01/30 04:00:36;;;;;;;0.80;0.80;;;20.80;55.00;;;;;;5212892;28;20051;-78
2021/01/30 04:03:07;;;;;;;1.52;0.90;;;20.90;55.00;;;;;;5231520;28;20041;-77
2021/01/30 04:05:37;;;;;;;0.60;0.60;;;20.90;54.90;;;;;;5220843;28;20021;-77
2021/01/30 04:08:08;;;;;;;0.70;0.60;;;20.90;55.00;;;;;;5228228;28;20068;-78
2021/01/30 04:10:39;;;;;;;1.15;0.77;;;20.90;55.00;;;;;;5230143;28;20028;-78
2021/01/30 04:13:10;;;;;;;1.17;0.88;;;20.90;55.10;;;;;;5214294;28;20041;-78
2021/01/30 04:15:41;;;;;;;0.80;0.70;;;20.90;54.90;;;;;;5220868;28;20033;-78
2021/01/30 04:18:12;;;;;;;0.85;0.70;;;20.80;54.70;;;;;;5213445;28;20028;-77
2021/01/30 04:20:43;;;;;;;0.77;0.77;;;20.80;54.70;;;;;;5213724;28;20025;-80
2021/01/30 04:23:13;;;;;;;0.70;0.70;;;20.80;54.80;;;;;;5210795;28;20040;-78
2021/01/30 04:25:44;;;;;;;1.27;0.90;;;20.90;55.00;;;;;;5210382;28;20653;-78
2021/01/30 04:28:14;;;;;;;1.20;0.70;;;20.90;55.00;;;;;;5201097;28;20032;-78
2021/01/30 04:30:45;;;;;;;1.90;0.80;;;20.90;54.80;;;;;;5196814;28;20126;-78
2021/01/30 04:33:16;;;;;;;1.02;0.90;;;20.90;54.90;;;;;;5210646;28;20044;-79
2021/01/30 04:35:46;;;;;;;1.10;0.90;;;20.90;54.80;;;;;;5207102;28;20024;-78
2021/01/30 04:38:17;;;;;;;1.05;0.80;;;20.80;54.60;;;;;;5229061;28;20514;-78
2021/01/30 04:40:48;;;;;;;0.80;0.80;;;20.80;54.50;;;;;;5230104;28;20071;-78
2021/01/30 04:43:39;;;;;;;3.70;0.70;;;20.80;54.70;;;;;;5230190;28;20033;-77
2021/01/30 04:46:41;;;;;;;1.75;0.80;;;20.80;54.90;;;;;;5208708;28;20385;-77
2021/01/30 04:49:37;;;;;;;1.52;0.90;;;20.80;54.80;;;;;;5214505;28;20116;-78
2021/01/30 04:52:21;;;;;;;0.60;0.60;;;20.80;54.70;;;;;;5215274;28;20027;-78
2021/01/30 04:55:10;;;;;;;1.05;0.80;;;20.80;54.80;;;;;;5215001;28;20068;-77
2021/01/30 04:58:15;;;;;;;0.77;0.77;;;20.80;54.80;;;;;;5246451;28;20028;-78
2021/01/30 05:01:20;;;;;;;0.95;0.70;;;20.80;54.70;;;;;;5212373;28;20028;-78
2021/01/30 05:04:01;;;;;;;0.80;0.70;;;20.80;54.70;;;;;;5213386;28;20564;-77
2021/01/30 05:06:38;;;;;;;1.00;0.68;;;20.80;54.60;;;;;;5201418;28;20033;-79
2021/01/30 05:09:14;;;;;;;1.15;0.80;;;20.80;54.80;;;;;;5216925;28;20048;-80
2021/01/30 05:11:51;;;;;;;1.00;0.90;;;20.80;54.70;;;;;;5230992;28;20024;-79
2021/01/30 05:14:22;;;;;;;2.78;0.68;;;20.80;55.00;;;;;;5231078;28;20033;-77
2021/01/30 05:17:27;;;;;;;2.13;0.98;;;20.80;55.60;;;;;;5222932;28;20028;-79
2021/01/30 05:20:01;;;;;;;4.95;0.93;;;20.80;55.20;;;;;;5247947;28;20506;-78
2021/01/30 05:22:34;;;;;;;11.98;1.00;;;20.90;55.60;;;;;;5211877;28;20033;-78
2021/01/30 05:25:12;;;;;;;3.08;0.80;;;20.90;55.10;;;;;;5232352;28;20032;-79
2021/01/30 05:28:07;;;;;;;6.82;0.70;;;20.90;55.00;;;;;;5224268;28;20120;-79
2021/01/30 05:30:59;;;;;;;5.53;0.80;;;20.80;55.10;;;;;;5230679;28;20036;-79
2021/01/30 05:33:54;;;;;;;4.07;0.82;;;20.90;55.30;;;;;;5230417;28;20106;-78
2021/01/30 05:36:36;;;;;;;4.30;0.85;;;21.00;55.30;;;;;;5247732;28;20025;-79
2021/01/30 05:39:23;;;;;;;7.45;0.77;;;21.00;54.30;;;;;;5210404;28;20017;-79
2021/01/30 05:42:15;;;;;;;3.33;0.90;;;20.90;54.50;;;;;;5206644;28;20017;-79
2021/01/30 05:45:12;;;;;;;4.25;0.80;;;20.90;54.60;;;;;;5220444;28;20017;-79
2021/01/30 05:47:43;;;;;;;2.85;0.70;;;20.80;54.30;;;;;;5230929;28;20028;-79
2021/01/30 05:50:18;;;;;;;4.75;0.80;;;20.80;54.30;;;;;;5202946;28;20094;-78
2021/01/30 05:52:49;;;;;;;0.68;0.60;;;20.80;54.20;;;;;;5211017;28;20505;-78
2021/01/30 05:55:29;;;;;;;1.60;0.90;;;20.70;54.10;;;;;;5212220;28;20020;-78
2021/01/30 05:58:22;;;;;;;1.25;0.63;;;20.70;54.10;;;;;;5191834;28;20025;-78
2021/01/30 06:01:16;;;;;;;1.65;0.60;;;20.70;53.90;;;;;;5182537;28;20494;-78
2021/01/30 06:03:54;;;;;;;0.75;0.60;;;20.70;53.90;;;;;;5217041;28;20042;-77
2021/01/30 06:06:27;;;;;;;1.67;0.70;;;20.70;53.80;;;;;;5247543;28;20025;-81
2021/01/30 06:09:09;;;;;;;1.77;0.52;;;20.70;53.80;;;;;;5196741;28;20040;-80
2021/01/30 06:11:45;;;;;;;1.27;0.60;;;20.70;53.70;;;;;;5196581;28;20029;-81
2021/01/30 06:14:29;;;;;;;1.13;0.63;;;20.70;53.70;;;;;;5216130;28;20082;-79
2021/01/30 06:16:59;;;;;;;0.50;0.50;;;20.70;53.60;;;;;;5215574;28;20033;-80
2021/01/30 06:19:32;;;;;;;0.70;0.70;;;20.70;53.50;;;;;;5215443;28;20033;-80
2021/01/30 06:22:29;;;;;;;0.73;0.50;;;20.70;53.40;;;;;;5233698;28;20025;-80
2021/01/30 06:24:59;;;;;;;1.05;0.70;;;20.70;53.40;;;;;;5214340;28;20047;-80
2021/01/30 06:27:35;;;;;;;0.60;0.55;;;20.70;53.40;;;;;;5235107;28;20036;-80
2021/01/30 06:30:08;;;;;;;0.75;0.60;;;20.70;53.40;;;;;;5203248;28;20037;-80
2021/01/30 06:32:42;;;;;;;0.60;0.60;;;20.70;53.30;;;;;;5226102;28;20024;-80
2021/01/30 06:35:18;;;;;;;0.50;0.50;;;20.70;53.30;;;;;;5231214;23;20396;-59
2021/01/30 06:38:08;;;;;;;0.65;0.65;;;20.70;53.20;;;;;;5260341;28;20067;-57
2021/01/30 06:40:49;;;;;;;0.80;0.70;;;20.70;53.20;;;;;;5255754;28;20091;-57
2021/01/30 06:43:34;;;;;;;0.88;0.50;;;20.70;53.10;;;;;;5236740;28;20035;-55
2021/01/30 06:46:10;;;;;;;2.35;0.60;;;20.60;53.20;;;;;;5243392;28;20032;-52
2021/01/30 06:48:41;;;;;;;0.75;0.68;;;20.60;53.00;;;;;;5232832;28;20114;-51
2021/01/30 06:51:26;;;;;;;2.40;0.50;;;20.60;53.00;;;;;;5236786;28;20039;-58
2021/01/30 06:54:19;;;;;;;0.60;0.60;;;20.60;53.00;;;;;;5259363;28;20019;-55
2021/01/30 06:57:14;;;;;;;0.60;0.60;;;20.60;52.90;;;;;;5260220;28;20035;-56
2021/01/30 06:59:56;;;;;;;0.50;0.50;;;20.60;53.00;;;;;;5263795;28;20407;-53
2021/01/30 07:02:36;;;;;;;0.50;0.50;;;20.60;52.90;;;;;;5224792;28;20042;-55
2021/01/30 07:05:19;;;;;;;0.50;0.50;;;20.60;52.90;;;;;;5233097;28;20127;-54
2021/01/30 07:07:57;;;;;;;1.05;0.50;;;20.60;52.80;;;;;;5259155;28;20099;-53
2021/01/30 07:10:41;;;;;;;1.58;0.60;;;20.60;52.90;;;;;;5242479;28;20057;-60
2021/01/30 07:13:46;;;;;;;0.65;0.60;;;20.70;53.10;;;;;;5245456;28;20030;-55
2021/01/30 07:16:26;;;;;;;0.70;0.70;;;20.70;52.50;;;;;;5244379;28;20028;-56
2021/01/30 07:18:58;;;;;;;4.15;0.80;;;20.80;52.50;;;;;;5254352;28;20529;-55
2021/01/30 07:21:29;;;;;;;1.42;0.60;;;20.70;52.30;;;;;;5240073;28;20154;-57
2021/01/30 07:24:07;;;;;;;0.52;0.52;;;20.70;52.20;;;;;;5218168;28;20028;-51
2021/01/30 07:26:50;;;;;;;0.40;0.40;;;20.70;52.10;;;;;;5236887;28;20048;-58
2021/01/30 07:29:41;;;;;;;0.55;0.55;;;20.70;51.90;;;;;;5224406;28;20488;-59
2021/01/30 07:32:31;;;;;;;0.85;0.50;;;20.70;51.80;;;;;;5221957;28;20047;-57
2021/01/30 07:35:06;;;;;;;1.38;0.70;;;20.70;51.80;;;;;;5226172;28;20447;-49
2021/01/30 07:37:49;;;;;;;4.07;0.60;;;20.70;51.80;;;;;;5243197;28;20050;-55
2021/01/30 07:40:39;;;;;;;0.90;0.60;;;20.60;51.40;;;;;;5226272;28;20036;-53
2021/01/30 07:43:14;;;;;;;2.55;0.70;;;20.60;51.40;;;;;;5216585;28;20042;-55
2021/01/30 07:45:51;;;;;;;1.00;0.70;;;20.60;51.10;;;;;;5232852;28;20283;-53
2021/01/30 07:48:28;;;;;;;3.05;0.68;;;20.60;51.00;;;;;;5210801;28;20051;-55
2021/01/30 07:51:09;;;;;;;0.63;0.63;;;20.60;50.90;;;;;;5237893;28;20163;-53
2021/01/30 07:53:40;;;;;;;3.15;0.80;;;20.60;50.80;;;;;;5213741;28;20504;-57
2021/01/30 07:56:19;;;;;;;0.90;0.60;;;20.60;50.90;;;;;;5238251;28;20050;-49
2021/01/30 07:58:55;;;;;;;1.90;0.70;;;20.60;50.60;;;;;;5254184;28;20469;-57
2021/01/30 08:01:39;;;;;;;0.55;0.52;;;20.60;50.60;;;;;;5259653;28;20032;-51
2021/01/30 08:04:22;;;;;;;2.88;0.90;;;20.60;50.50;;;;;;5232590;28;20040;-57
2021/01/30 08:07:39;;;;;;;0.77;0.60;;;20.60;50.30;;;;;;5234974;28;20056;-55
2021/01/30 08:10:22;;;;;;;0.60;0.60;;;20.60;50.30;;;;;;5151139;28;20042;-53
2021/01/30 08:13:31;;;;;;;2.80;0.50;;;20.70;50.10;;;;;;5156961;28;20132;-57
2021/01/30 08:16:05;;;;;;;1.13;0.60;;;20.70;50.20;;;;;;5215607;28;20028;-54
2021/01/30 08:18:40;;;;;;;2.50;0.75;;;20.70;50.00;;;;;;5229019;28;20525;-52
2021/01/30 08:21:36;;;;;;;1.52;0.75;;;20.70;50.10;;;;;;5216710;28;20522;-55
2021/01/30 08:24:11;;;;;;;1.90;0.70;;;20.70;50.10;;;;;;5231663;28;20044;-60
2021/01/30 08:27:11;;;;;;;1.02;0.70;;;20.70;50.30;;;;;;5224502;28;20032;-54
2021/01/30 08:29:47;;;;;;;1.85;0.65;;;20.70;50.20;;;;;;5219951;28;20032;-53
2021/01/30 08:32:39;;;;;;;1.38;1.10;;;20.60;50.20;;;;;;5221850;28;20041;-51
2021/01/30 08:35:21;;;;;;;2.38;0.90;;;20.70;50.30;;;;;;5223220;28;20051;-52
2021/01/30 08:38:02;;;;;;;2.90;0.80;;;20.70;50.30;;;;;;5240970;28;20545;-53
2021/01/30 08:40:55;;;;;;;1.38;0.93;;;20.60;50.10;;;;;;5224090;28;20072;-59
2021/01/30 08:43:46;;;;;;;1.65;0.90;;;20.60;50.20;;;;;;5220106;28;20052;-53
2021/01/30 08:46:26;;;;;;;1.90;0.77;;;20.60;50.10;;;;;;5214214;28;20036;-57
2021/01/30 08:49:12;;;;;;;1.83;0.90;;;20.60;50.00;;;;;;5201191;28;20111;-51
2021/01/30 08:51:44;;;;;;;2.13;1.02;;;20.60;50.00;;;;;;5235238;28;20093;-58
2021/01/30 08:54:29;;;;;;;2.00;1.08;;;20.70;49.90;;;;;;5227974;28;20059;-59
2021/01/30 08:57:00;;;;;;;2.30;1.00;;;20.60;49.80;;;;;;5238845;28;20073;-54
2021/01/30 08:59:50;;;;;;;2.72;1.00;;;20.60;49.90;;;;;;5237074;28;20431;-59
2021/01/30 09:02:26;;;;;;;9.23;1.10;;;20.60;49.80;;;;;;5222454;28;20369;-56
2021/01/30 09:05:10;;;;;;;1.85;1.20;;;20.60;49.80;;;;;;5258895;28;20020;-51
2021/01/30 09:07:45;;;;;;;4.65;1.15;;;20.60;49.60;;;;;;5227094;28;20540;-52
2021/01/30 09:10:22;;;;;;;2.60;1.10;;;20.60;49.60;;;;;;5241144;28;20516;-56
2021/01/30 09:12:56;;;;;;;2.78;1.00;;;20.60;49.60;;;;;;5257481;28;20031;-52
2021/01/30 09:15:42;;;;;;;3.17;1.20;;;20.60;49.50;;;;;;5257235;28;20046;-51
2021/01/30 09:18:32;;;;;;;2.53;1.17;;;20.60;49.50;;;;;;5255630;28;20550;-55
2021/01/30 09:21:15;;;;;;;2.10;0.90;;;20.60;49.50;;;;;;5168550;28;20045;-58
2021/01/30 09:23:50;;;;;;;3.25;1.10;;;20.60;49.40;;;;;;5193309;28;20026;-53
2021/01/30 09:26:49;;;;;;;1.33;0.90;;;20.60;49.30;;;;;;5245769;28;20044;-54
2021/01/30 09:29:25;;;;;;;1.38;0.85;;;20.60;49.30;;;;;;5261564;28;20060;-51
2021/01/30 09:31:56;;;;;;;2.03;1.00;;;20.60;49.30;;;;;;5244476;28;20490;-51
2021/01/30 09:34:31;;;;;;;3.92;1.10;;;20.60;49.20;;;;;;5246723;28;20173;-51
2021/01/30 09:37:03;;;;;;;1.23;0.90;;;20.60;49.20;;;;;;5236023;28;20484;-54
2021/01/30 09:39:37;;;;;;;2.15;1.00;;;20.60;48.90;;;;;;5208326;28;20755;-58
2021/01/30 09:42:18;;;;;;;2.83;1.10;;;20.60;49.20;;;;;;5223887;28;20024;-60
2021/01/30 09:45:10;;;;;;;2.42;1.10;;;20.70;49.10;;;;;;5243553;28;20377;-49
2021/01/30 09:47:48;;;;;;;1.27;0.90;;;20.70;49.30;;;;;;5240643;28;20020;-53
2021/01/30 09:50:44;;;;;;;1.88;1.08;;;20.70;49.30;;;;;;5244664;28;20496;-52
2021/01/30 09:53:24;;;;;;;4.22;1.23;;;20.70;49.20;;;;;;5243013;28;20028;-55
2021/01/30 09:56:15;;;;;;;2.63;1.13;;;20.60;48.80;;;;;;5225320;28;20024;-52
2021/01/30 09:58:46;;;;;;;2.90;1.27;;;20.60;48.10;;;;;;5219997;28;20020;-50
2021/01/30 10:01:32;;;;;;;4.43;1.10;;;20.60;47.90;;;;;;5243047;28;20028;-57
2021/01/30 10:04:17;;;;;;;1.98;1.30;;;20.60;47.60;;;;;;5242119;28;20021;-58
2021/01/30 10:06:48;;;;;;;3.85;1.08;;;20.60;47.70;;;;;;5237148;28;20047;-50
2021/01/30 10:09:20;;;;;;;2.35;1.20;;;20.60;47.70;;;;;;5236799;28;20494;-53
2021/01/30 10:11:55;;;;;;;1.42;1.15;;;20.60;47.80;;;;;;5254936;28;20032;-56
2021/01/30 10:14:26;;;;;;;1.52;1.17;;;20.60;47.80;;;;;;5223318;28;20028;-51
2021/01/30 10:17:02;;;;;;;1.70;1.00;;;20.70;47.80;;;;;;5221320;28;20025;-58
2021/01/30 10:19:34;;;;;;;6.28;1.13;;;20.70;47.80;;;;;;5207119;28;20089;-53
2021/01/30 10:22:15;;;;;;;2.97;1.02;;;20.70;47.90;;;;;;5255905;28;20012;-57
2021/01/30 10:24:46;;;;;;;1.30;1.00;;;20.80;47.90;;;;;;5244187;28;20020;-55
2021/01/30 10:27:22;;;;;;;2.78;0.80;;;20.70;48.00;;;;;;5251855;22;20043;-61
2021/01/30 10:29:56;;;;;;;2.45;1.15;;;20.70;47.70;;;;;;5230996;28;20021;-60
2021/01/30 10:32:41;;;;;;;4.88;1.23;;;20.70;47.30;;;;;;5219248;28;20382;-60
2021/01/30 10:35:25;;;;;;;4.38;1.20;;;20.70;47.10;;;;;;5225352;28;20346;-61
2021/01/30 10:38:19;;;;;;;2.40;1.20;;;20.60;47.90;;;;;;5240561;28;20147;-60
2021/01/30 10:40:58;;;;;;;3.17;1.00;;;20.70;47.50;;;;;;5245482;28;20508;-61
2021/01/30 10:43:32;;;;;;;2.28;0.98;;;20.70;47.10;;;;;;5241551;28;20043;-59
2021/01/30 10:46:13;;;;;;;3.05;1.10;;;20.70;47.10;;;;;;5246810;28;20077;-61
2021/01/30 10:48:44;;;;;;;2.78;1.40;;;20.70;47.30;;;;;;5236511;28;20503;-60
2021/01/30 10:51:21;;;;;;;2.40;1.13;;;20.70;47.20;;;;;;5247349;28;20032;-61
2021/01/30 10:54:11;;;;;;;2.72;1.10;;;20.70;47.20;;;;;;5234207;28;20032;-61
2021/01/30 10:56:42;;;;;;;1.33;1.00;;;20.70;47.30;;;;;;5253676;28;20032;-61
2021/01/30 10:59:23;;;;;;;8.95;1.10;;;20.70;47.40;;;;;;5250596;28;20047;-61
2021/01/30 11:01:53;;;;;;;1.33;1.00;;;20.70;47.30;;;;;;5238922;28;20445;-61
2021/01/30 11:04:27;;;;;;;1.50;1.10;;;20.70;47.20;;;;;;5247236;28;20089;-60
2021/01/30 11:06:59;;;;;;;1.10;0.95;;;20.70;47.20;;;;;;5247868;28;20362;-62
2021/01/30 11:09:33;;;;;;;1.52;1.10;;;20.70;47.30;;;;;;5251024;28;20035;-60
2021/01/30 11:12:11;;;;;;;1.42;0.98;;;20.80;47.40;;;;;;5248425;28;20062;-59
2021/01/30 11:14:41;;;;;;;1.98;1.30;;;20.80;47.50;;;;;;5237081;28;20036;-61
2021/01/30 11:17:19;;;;;;;2.17;0.90;;;20.80;47.20;;;;;;5247734;28;20029;-60
2021/01/30 11:19:49;;;;;;;2.25;1.00;;;20.80;47.30;;;;;;5215167;28;20452;-61
2021/01/30 11:22:24;;;;;;;0.98;0.80;;;20.80;47.20;;;;;;5249201;28;20099;-61
2021/01/30 11:25:04;;;;;;;1.40;1.00;;;20.80;47.30;;;;;;5244579;28;20220;-61
2021/01/30 11:27:36;;;;;;;0.98;0.90;;;20.80;47.00;;;;;;5252117;28;20020;-61
2021/01/30 11:30:15;;;;;;;2.40;1.17;;;20.80;47.10;;;;;;5254101;28;20020;-61
2021/01/30 11:32:53;;;;;;;1.05;0.77;;;20.80;47.30;;;;;;5256399;28;20020;-61
2021/01/30 11:35:29;;;;;;;2.42;0.90;;;20.80;47.20;;;;;;5242603;28;20024;-59
2021/01/30 11:38:16;;;;;;;1.52;1.00;;;20.80;47.50;;;;;;5243550;28;20047;-61
2021/01/30 11:40:49;;;;;;;1.95;1.00;;;20.80;47.30;;;;;;5249213;28;20031;-61
2021/01/30 11:43:19;;;;;;;2.05;0.73;;;20.80;47.40;;;;;;5242701;28;20020;-61
2021/01/30 11:45:50;;;;;;;2.92;1.00;;;20.80;47.20;;;;;;5257208;28;20431;-61
2021/01/30 11:48:21;;;;;;;1.20;0.85;;;20.70;46.80;;;;;;5240871;28;20412;-60
2021/01/30 11:50:52;;;;;;;1.63;1.10;;;20.70;46.90;;;;;;5250571;28;20541;-61
2021/01/30 11:53:24;;;;;;;1.20;1.00;;;20.70;47.20;;;;;;5255363;28;20024;-59
2021/01/30 11:55:55;;;;;;;2.65;0.90;;;20.70;47.20;;;;;;5249743;28;20032;-60
2021/01/30 11:58:25;;;;;;;1.30;0.90;;;20.70;47.00;;;;;;5244075;28;20024;-61
2021/01/30 12:00:56;;;;;;;1.20;0.90;;;20.70;47.00;;;;;;5252609;28;20028;-60
2021/01/30 12:03:28;;;;;;;1.10;0.95;;;20.70;47.00;;;;;;5244736;28;20020;-61
2021/01/30 12:05:59;;;;;;;3.10;1.00;;;20.70;46.80;;;;;;5240891;28;20129;-60
2021/01/30 12:08:30;;;;;;;2.00;1.02;;;20.80;47.00;;;;;;5257370;28;20528;-61
2021/01/30 12:11:02;;;;;;;2.95;0.73;;;20.80;46.90;;;;;;5262083;28;20408;-60
2021/01/30 12:13:32;;;;;;;1.38;0.80;;;20.80;47.00;;;;;;5247049;28;20111;-61
2021/01/30 12:16:04;;;;;;;1.77;0.98;;;20.80;46.90;;;;;;5258234;28;20080;-60
2021/01/30 12:18:35;;;;;;;1.90;0.82;;;20.80;47.00;;;;;;5237865;28;20392;-61
2021/01/30 12:21:05;;;;;;;1.95;0.98;;;20.80;47.10;;;;;;5247838;28;20025;-61
2021/01/30 12:23:36;;;;;;;3.05;0.80;;;20.80;46.90;;;;;;5234398;28;20024;-60
2021/01/30 12:26:08;;;;;;;2.60;0.80;;;20.90;47.10;;;;;;5228550;28;20035;-60
2021/01/30 12:28:38;;;;;;;1.60;0.70;;;20.90;47.10;;;;;;5240133;28;20368;-61
2021/01/30 12:31:09;;;;;;;3.53;0.77;;;20.80;47.10;;;;;;5247641;28;20040;-60
2021/01/30 12:33:39;;;;;;;1.95;0.80;;;20.90;47.10;;;;;;5251124;28;20110;-61
2021/01/30 12:36:10;;;;;;;1.33;0.80;;;20.90;47.40;;;;;;5246832;28;20119;-61
2021/01/30 12:38:41;;;;;;;0.60;0.60;;;20.90;47.20;;;;;;5247279;28;20592;-61
2021/01/30 12:41:11;;;;;;;2.15;0.80;;;20.80;47.30;;;;;;5251231;28;20020;-61
2021/01/30 12:43:42;;;;;;;1.40;0.90;;;20.90;47.50;;;;;;5246726;28;20033;-62
2021/01/30 12:46:12;;;;;;;1.23;0.68;;;20.90;47.50;;;;;;5249111;28;20047;-59
2021/01/30 12:48:43;;;;;;;0.90;0.70;;;20.90;47.50;;;;;;5245557;28;20032;-62
2021/01/30 12:51:15;;;;;;;2.30;0.80;;;20.90;47.50;;;;;;5259766;28;20038;-61
2021/01/30 12:53:46;;;;;;;1.05;0.80;;;20.90;47.60;;;;;;5251915;28;20046;-60
2021/01/30 12:56:17;;;;;;;3.53;0.82;;;20.90;47.50;;;;;;5249919;28;20024;-61
2021/01/30 12:58:47;;;;;;;1.40;0.80;;;20.90;47.60;;;;;;5254027;28;20039;-61
2021/01/30 13:01:18;;;;;;;0.75;0.70;;;20.90;47.50;;;;;;5265999;28;20031;-61
2021/01/30 13:03:48;;;;;;;1.55;0.80;;;20.90;47.60;;;;;;5264637;28;20032;-62
2021/01/30 13:06:19;;;;;;;0.95;0.73;;;20.90;47.60;;;;;;5266086;28;20206;-59
2021/01/30 13:08:50;;;;;;;6.00;1.20;;;20.90;47.60;;;;;;5264492;28;20040;-61
2021/01/30 13:11:20;;;;;;;18.65;3.13;;;20.90;47.80;;;;;;5266221;28;20060;-61
2021/01/30 13:13:51;;;;;;;66.68;10.50;;;20.90;50.00;;;;;;5254735;28;20121;-61
2021/01/30 13:16:21;;;;;;;53.38;9.98;;;20.90;51.60;;;;;;5263552;28;20064;-60
2021/01/30 13:18:52;;;;;;;40.58;6.78;;;21.00;54.30;;;;;;5256358;28;20377;-62
2021/01/30 13:21:23;;;;;;;30.05;6.15;;;21.00;54.50;;;;;;5257853;28;20048;-61
2021/01/30 13:23:53;;;;;;;33.20;5.53;;;21.00;54.40;;;;;;5259711;28;20032;-60
2021/01/30 13:26:24;;;;;;;25.20;5.55;;;21.00;53.90;;;;;;5241849;28;20048;-60
2021/01/30 13:28:54;;;;;;;16.25;4.47;;;21.00;53.80;;;;;;5252588;28;20028;-62
2021/01/30 13:31:25;;;;;;;25.50;5.07;;;21.00;53.30;;;;;;5244436;28;20166;-61
2021/01/30 13:33:55;;;;;;;15.52;4.25;;;21.00;53.30;;;;;;5248539;28;20036;-60
2021/01/30 13:36:26;;;;;;;17.63;3.92;;;21.00;53.30;;;;;;5249567;28;20510;-61